sensor_id;sensor_type;location;lat;lon;timestamp;pressure;altitude;pressure_sealevel;temperature;humidity
11448;BME280;43755;49.736;8.734;2022-09-09T00:01:59;97434.38;;;16.05;100.00
11448;BME280;43755;49.736;8.734;2022-09-09T00:04:05;97427.56;;;16.01;100.00
11448;BME280;43755;49.736;8.734;2022-09-09T00:06:18;97430.22;;;16.01;100.00
11448;BME280;43755;49.736;8.734;2022-09-09T00:08:28;97430.94;;;16.03;100.00
11448;BME280;43755;49.736;8.734;2022-09-09T00:10:34;97428.41;;;16.01;100.00
11448;BME280;43755;49.736;8.734;2022-09-09T00:12:47;97422.50;;;16.09;100.00
11448;BME280;43755;49.736;8.734;2022-09-09T00:14:54;97423.13;;;16.12;100.00
11448;BME280;43755;49.736;8.734;2022-09-09T00:17:02;97413.72;;;16.19;100.00
11448;BME280;43755;49.736;8.734;2022-09-09T00:19:07;97407.63;;;16.17;100.00
11448;BME280;43755;49.736;8.734;2022-09-09T00:21:15;97403.53;;;16.24;100.00
11448;BME280;43755;49.736;8.734;2022-09-09T00:23:24;97409.59;;;16.26;100.00
11448;BME280;43755;49.736;8.734;2022-09-09T00:25:30;97416.88;;;16.24;100.00
11448;BME280;43755;49.736;8.734;2022-09-09T00:27:41;97414.94;;;16.26;100.00
11448;BME280;43755;49.736;8.734;2022-09-09T00:29:51;97420.41;;;16.25;100.00
11448;BME280;43755;49.736;8.734;2022-09-09T00:31:57;97415.06;;;16.25;100.00
11448;BME280;43755;49.736;8.734;2022-09-09T00:34:11;97417.75;;;16.25;100.00
11448;BME280;43755;49.736;8.734;2022-09-09T00:36:15;97405.13;;;16.27;100.00
11448;BME280;43755;49.736;8.734;2022-09-09T00:38:22;97411.81;;;16.32;100.00
11448;BME280;43755;49.736;8.734;2022-09-09T00:40:29;97402.13;;;16.31;100.00
11448;BME280;43755;49.736;8.734;2022-09-09T00:42:36;97408.19;;;16.33;100.00
11448;BME280;43755;49.736;8.734;2022-09-09T00:44:56;97416.44;;;16.30;100.00
11448;BME280;43755;49.736;8.734;2022-09-09T00:47:07;97408.94;;;16.35;100.00
11448;BME280;43755;49.736;8.734;2022-09-09T00:49:18;97404.44;;;16.36;100.00
11448;BME280;43755;49.736;8.734;2022-09-09T00:51:27;97409.03;;;16.34;100.00
11448;BME280;43755;49.736;8.734;2022-09-09T00:53:36;97405.41;;;16.35;100.00
11448;BME280;43755;49.736;8.734;2022-09-09T00:55:45;97410.75;;;16.35;100.00
11448;BME280;43755;49.736;8.734;2022-09-09T00:57:51;97416.44;;;16.30;100.00
11448;BME280;43755;49.736;8.734;2022-09-09T01:00:01;97404.56;;;16.34;100.00
11448;BME280;43755;49.736;8.734;2022-09-09T01:02:13;97414.75;;;16.41;100.00
11448;BME280;43755;49.736;8.734;2022-09-09T01:04:23;97410.88;;;16.45;100.00
11448;BME280;43755;49.736;8.734;2022-09-09T01:06:30;97412.50;;;16.47;100.00
11448;BME280;43755;49.736;8.734;2022-09-09T01:08:42;97410.78;;;16.46;100.00
11448;BME280;43755;49.736;8.734;2022-09-09T01:10:49;97415.03;;;16.49;100.00
11448;BME280;43755;49.736;8.734;2022-09-09T01:12:51;97414.19;;;16.48;100.00
11448;BME280;43755;49.736;8.734;2022-09-09T01:15:00;97415.03;;;16.49;100.00
11448;BME280;43755;49.736;8.734;2022-09-09T01:17:09;97416.13;;;16.46;100.00
11448;BME280;43755;49.736;8.734;2022-09-09T01:19:20;97409.72;;;16.49;100.00
11448;BME280;43755;49.736;8.734;2022-09-09T01:21:32;97407.38;;;16.44;100.00
11448;BME280;43755;49.736;8.734;2022-09-09T01:23:48;97403.34;;;16.38;100.00
11448;BME280;43755;49.736;8.734;2022-09-09T01:28:35;97403.53;;;16.24;100.00
11448;BME280;43755;49.736;8.734;2022-09-09T01:30:39;97404.97;;;16.17;100.00
11448;BME280;43755;49.736;8.734;2022-09-09T01:32:44;97407.53;;;16.19;100.00
11448;BME280;43755;49.736;8.734;2022-09-09T01:34:45;97401.91;;;16.11;100.00
11448;BME280;43755;49.736;8.734;2022-09-09T01:36:50;97403.09;;;16.07;100.00
11448;BME280;43755;49.736;8.734;2022-09-09T01:38:53;97400.44;;;16.07;100.00
11448;BME280;43755;49.736;8.734;2022-09-09T01:40:54;97396.06;;;16.06;100.00
11448;BME280;43755;49.736;8.734;2022-09-09T01:42:56;97399.78;;;16.03;100.00
11448;BME280;43755;49.736;8.734;2022-09-09T01:44:59;97396.72;;;15.96;100.00
11448;BME280;43755;49.736;8.734;2022-09-09T01:47:00;97397.72;;;15.95;100.00
11448;BME280;43755;49.736;8.734;2022-09-09T01:49:04;97398.13;;;16.02;100.00
11448;BME280;43755;49.736;8.734;2022-09-09T01:51:07;97408.38;;;15.95;100.00
11448;BME280;43755;49.736;8.734;2022-09-09T01:53:09;97412.22;;;15.91;100.00
11448;BME280;43755;49.736;8.734;2022-09-09T01:55:12;97410.50;;;15.90;100.00
11448;BME280;43755;49.736;8.734;2022-09-09T01:57:18;97407.00;;;15.90;100.00
11448;BME280;43755;49.736;8.734;2022-09-09T01:59:36;97399.38;;;15.96;100.00
11448;BME280;43755;49.736;8.734;2022-09-09T02:01:57;97406.72;;;16.06;100.00
11448;BME280;43755;49.736;8.734;2022-09-09T02:04:10;97405.53;;;16.10;100.00
11448;BME280;43755;49.736;8.734;2022-09-09T02:06:25;97408.69;;;16.15;100.00
11448;BME280;43755;49.736;8.734;2022-09-09T02:08:34;97402.91;;;16.21;100.00
11448;BME280;43755;49.736;8.734;2022-09-09T02:10:45;97402.19;;;16.19;100.00
11448;BME280;43755;49.736;8.734;2022-09-09T02:12:51;97400.72;;;16.26;100.00
11448;BME280;43755;49.736;8.734;2022-09-09T02:15:00;97404.59;;;16.22;100.00
11448;BME280;43755;49.736;8.734;2022-09-09T02:17:08;97405.41;;;16.11;100.00
11448;BME280;43755;49.736;8.734;2022-09-09T02:19:14;97407.47;;;16.08;100.00
11448;BME280;43755;49.736;8.734;2022-09-09T02:21:18;97398.63;;;16.07;100.00
11448;BME280;43755;49.736;8.734;2022-09-09T02:23:20;97402.75;;;16.11;100.00
11448;BME280;43755;49.736;8.734;2022-09-09T02:25:24;97400.44;;;16.07;100.00
11448;BME280;43755;49.736;8.734;2022-09-09T02:27:27;97409.59;;;16.03;100.00
11448;BME280;43755;49.736;8.734;2022-09-09T02:29:31;97410.34;;;16.05;100.00
11448;BME280;43755;49.736;8.734;2022-09-09T02:31:34;97415.28;;;15.98;100.00
11448;BME280;43755;49.736;8.734;2022-09-09T02:33:41;97413.91;;;15.92;100.00
11448;BME280;43755;49.736;8.734;2022-09-09T02:35:44;97416.59;;;15.92;100.00
11448;BME280;43755;49.736;8.734;2022-09-09T02:37:47;97421.06;;;15.92;100.00
11448;BME280;43755;49.736;8.734;2022-09-09T02:39:50;97412.78;;;15.84;100.00
11448;BME280;43755;49.736;8.734;2022-09-09T02:41:52;97419.94;;;15.83;100.00
11448;BME280;43755;49.736;8.734;2022-09-09T02:43:53;97425.06;;;15.74;100.00
11448;BME280;43755;49.736;8.734;2022-09-09T02:46:02;97418.78;;;15.75;100.00
11448;BME280;43755;49.736;8.734;2022-09-09T02:48:10;97419.13;;;15.70;100.00
11448;BME280;43755;49.736;8.734;2022-09-09T02:50:17;97420.94;;;15.70;100.00
11448;BME280;43755;49.736;8.734;2022-09-09T02:52:26;97415.38;;;15.73;100.00
11448;BME280;43755;49.736;8.734;2022-09-09T02:54:31;97411.88;;;15.72;100.00
11448;BME280;43755;49.736;8.734;2022-09-09T02:56:38;97416.81;;;15.66;100.00
11448;BME280;43755;49.736;8.734;2022-09-09T02:58:41;97420.41;;;15.65;100.00
11448;BME280;43755;49.736;8.734;2022-09-09T03:00:44;97415.09;;;15.65;100.00
11448;BME280;43755;49.736;8.734;2022-09-09T03:02:46;97409.97;;;15.62;100.00
11448;BME280;43755;49.736;8.734;2022-09-09T03:04:48;97409.69;;;15.53;100.00
11448;BME280;43755;49.736;8.734;2022-09-09T03:06:53;97408.03;;;15.51;100.00
11448;BME280;43755;49.736;8.734;2022-09-09T03:08:54;97416.28;;;15.61;100.00
11448;BME280;43755;49.736;8.734;2022-09-09T03:10:58;97406.78;;;15.56;100.00
11448;BME280;43755;49.736;8.734;2022-09-09T03:13:01;97407.88;;;15.54;100.00
11448;BME280;43755;49.736;8.734;2022-09-09T03:15:05;97410.31;;;15.57;100.00
11448;BME280;43755;49.736;8.734;2022-09-09T03:17:07;97408.84;;;15.53;100.00
11448;BME280;43755;49.736;8.734;2022-09-09T03:19:09;97400.91;;;15.51;100.00
11448;BME280;43755;49.736;8.734;2022-09-09T03:21:10;97402.19;;;15.46;100.00
11448;BME280;43755;49.736;8.734;2022-09-09T03:23:13;97403.50;;;15.40;100.00
11448;BME280;43755;49.736;8.734;2022-09-09T03:25:15;97407.00;;;15.41;100.00
11448;BME280;43755;49.736;8.734;2022-09-09T03:27:16;97402.63;;;15.40;100.00
11448;BME280;43755;49.736;8.734;2022-09-09T03:29:19;97401.69;;;15.41;100.00
11448;BME280;43755;49.736;8.734;2022-09-09T03:31:22;97413.09;;;15.43;100.00
11448;BME280;43755;49.736;8.734;2022-09-09T03:33:23;97414.66;;;15.71;100.00
11448;BME280;43755;49.736;8.734;2022-09-09T03:35:25;97418.72;;;15.51;100.00
11448;BME280;43755;49.736;8.734;2022-09-09T03:37:26;97414.16;;;15.40;100.00
11448;BME280;43755;49.736;8.734;2022-09-09T03:39:29;97415.53;;;15.33;100.00
11448;BME280;43755;49.736;8.734;2022-09-09T03:41:30;97418.75;;;15.26;100.00
11448;BME280;43755;49.736;8.734;2022-09-09T03:43:32;97416.31;;;15.23;100.00
11448;BME280;43755;49.736;8.734;2022-09-09T03:45:33;97419.31;;;15.18;100.00
11448;BME280;43755;49.736;8.734;2022-09-09T03:47:34;97417.16;;;15.10;100.00
11448;BME280;43755;49.736;8.734;2022-09-09T03:49:36;97412.16;;;15.06;100.00
11448;BME280;43755;49.736;8.734;2022-09-09T03:51:37;97407.88;;;15.03;100.00
11448;BME280;43755;49.736;8.734;2022-09-09T03:53:40;97410.03;;;14.98;100.00
11448;BME280;43755;49.736;8.734;2022-09-09T03:55:45;97405.56;;;14.99;100.00
11448;BME280;43755;49.736;8.734;2022-09-09T03:57:46;97405.34;;;14.89;100.00
11448;BME280;43755;49.736;8.734;2022-09-09T03:59:48;97412.59;;;14.87;100.00
11448;BME280;43755;49.736;8.734;2022-09-09T04:01:49;97406.63;;;14.84;100.00
11448;BME280;43755;49.736;8.734;2022-09-09T04:03:51;97412.25;;;14.79;100.00
11448;BME280;43755;49.736;8.734;2022-09-09T04:05:53;97405.03;;;14.81;100.00
11448;BME280;43755;49.736;8.734;2022-09-09T04:07:54;97401.84;;;14.76;100.00
11448;BME280;43755;49.736;8.734;2022-09-09T04:09:56;97390.00;;;14.80;100.00
11448;BME280;43755;49.736;8.734;2022-09-09T04:11:58;97389.25;;;14.91;100.00
11448;BME280;43755;49.736;8.734;2022-09-09T04:14:00;97402.56;;;14.91;100.00
11448;BME280;43755;49.736;8.734;2022-09-09T04:16:02;97394.91;;;14.86;100.00
11448;BME280;43755;49.736;8.734;2022-09-09T04:18:04;97393.84;;;14.89;100.00
11448;BME280;43755;49.736;8.734;2022-09-09T04:20:06;97401.09;;;14.87;100.00
11448;BME280;43755;49.736;8.734;2022-09-09T04:22:11;97397.25;;;14.91;100.00
11448;BME280;43755;49.736;8.734;2022-09-09T04:24:12;97391.38;;;14.86;100.00
11448;BME280;43755;49.736;8.734;2022-09-09T04:26:16;97397.78;;;14.83;100.00
11448;BME280;43755;49.736;8.734;2022-09-09T04:28:20;97398.00;;;14.80;100.00
11448;BME280;43755;49.736;8.734;2022-09-09T04:30:22;97394.47;;;14.80;100.00
11448;BME280;43755;49.736;8.734;2022-09-09T04:32:24;97396.84;;;14.84;100.00
11448;BME280;43755;49.736;8.734;2022-09-09T04:34:27;97403.31;;;14.80;100.00
11448;BME280;43755;49.736;8.734;2022-09-09T04:36:29;97398.31;;;14.75;100.00
11448;BME280;43755;49.736;8.734;2022-09-09T04:38:31;97395.13;;;14.70;100.00
11448;BME280;43755;49.736;8.734;2022-09-09T04:40:33;97398.28;;;14.63;100.00
11448;BME280;43755;49.736;8.734;2022-09-09T04:42:34;97403.09;;;14.58;100.00
11448;BME280;43755;49.736;8.734;2022-09-09T04:44:37;97403.00;;;14.59;100.00
11448;BME280;43755;49.736;8.734;2022-09-09T04:46:39;97408.41;;;14.58;100.00
11448;BME280;43755;49.736;8.734;2022-09-09T04:48:41;97414.91;;;14.54;100.00
11448;BME280;43755;49.736;8.734;2022-09-09T04:50:43;97408.72;;;14.53;100.00
11448;BME280;43755;49.736;8.734;2022-09-09T04:52:44;97416.81;;;14.52;100.00
11448;BME280;43755;49.736;8.734;2022-09-09T04:54:45;97410.00;;;14.48;100.00
11448;BME280;43755;49.736;8.734;2022-09-09T04:56:49;97417.44;;;14.43;100.00
11448;BME280;43755;49.736;8.734;2022-09-09T04:58:51;97412.00;;;14.44;100.00
11448;BME280;43755;49.736;8.734;2022-09-09T05:00:54;97411.13;;;14.44;100.00
11448;BME280;43755;49.736;8.734;2022-09-09T05:02:55;97420.94;;;14.43;100.00
11448;BME280;43755;49.736;8.734;2022-09-09T05:04:57;97412.94;;;14.43;100.00
11448;BME280;43755;49.736;8.734;2022-09-09T05:06:58;97423.72;;;14.42;100.00
11448;BME280;43755;49.736;8.734;2022-09-09T05:08:59;97421.59;;;14.47;100.00
11448;BME280;43755;49.736;8.734;2022-09-09T05:11:01;97417.44;;;14.55;100.00
11448;BME280;43755;49.736;8.734;2022-09-09T05:13:03;97432.81;;;14.64;100.00
11448;BME280;43755;49.736;8.734;2022-09-09T05:15:06;97428.34;;;14.78;100.00
11448;BME280;43755;49.736;8.734;2022-09-09T05:17:09;97441.44;;;14.81;100.00
11448;BME280;43755;49.736;8.734;2022-09-09T05:19:10;97439.13;;;14.89;100.00
11448;BME280;43755;49.736;8.734;2022-09-09T05:21:14;97442.22;;;14.95;100.00
11448;BME280;43755;49.736;8.734;2022-09-09T05:23:15;97447.53;;;14.95;100.00
11448;BME280;43755;49.736;8.734;2022-09-09T05:25:17;97450.94;;;14.97;100.00
11448;BME280;43755;49.736;8.734;2022-09-09T05:27:19;97449.78;;;15.01;100.00
11448;BME280;43755;49.736;8.734;2022-09-09T05:29:21;97449.97;;;14.98;100.00
11448;BME280;43755;49.736;8.734;2022-09-09T05:31:22;97456.78;;;15.02;100.00
11448;BME280;43755;49.736;8.734;2022-09-09T05:33:27;97450.41;;;15.05;100.00
11448;BME280;43755;49.736;8.734;2022-09-09T05:35:28;97456.19;;;15.11;100.00
11448;BME280;43755;49.736;8.734;2022-09-09T05:37:30;97456.19;;;15.11;100.00
11448;BME280;43755;49.736;8.734;2022-09-09T05:39:32;97455.22;;;15.12;100.00
11448;BME280;43755;49.736;8.734;2022-09-09T05:41:34;97464.59;;;15.18;100.00
11448;BME280;43755;49.736;8.734;2022-09-09T05:43:36;97450.84;;;15.11;100.00
11448;BME280;43755;49.736;8.734;2022-09-09T05:45:38;97459.47;;;15.15;100.00
11448;BME280;43755;49.736;8.734;2022-09-09T05:47:39;97463.41;;;15.09;100.00
11448;BME280;43755;49.736;8.734;2022-09-09T05:49:42;97464.69;;;15.16;100.00
11448;BME280;43755;49.736;8.734;2022-09-09T05:51:43;97471.94;;;15.14;100.00
11448;BME280;43755;49.736;8.734;2022-09-09T05:53:45;97466.41;;;15.18;100.00
11448;BME280;43755;49.736;8.734;2022-09-09T05:55:47;97474.16;;;15.21;100.00
11448;BME280;43755;49.736;8.734;2022-09-09T05:57:49;97472.25;;;15.23;100.00
11448;BME280;43755;49.736;8.734;2022-09-09T05:59:52;97474.16;;;15.21;100.00
11448;BME280;43755;49.736;8.734;2022-09-09T06:01:53;97476.31;;;15.28;100.00
11448;BME280;43755;49.736;8.734;2022-09-09T06:03:55;97476.84;;;15.33;100.00
11448;BME280;43755;49.736;8.734;2022-09-09T06:05:58;97469.78;;;15.45;100.00
11448;BME280;43755;49.736;8.734;2022-09-09T06:08:00;97471.09;;;15.52;100.00
11448;BME280;43755;49.736;8.734;2022-09-09T06:10:01;97468.53;;;15.63;100.00
11448;BME280;43755;49.736;8.734;2022-09-09T06:12:03;97473.31;;;15.71;100.00
11448;BME280;43755;49.736;8.734;2022-09-09T06:14:05;97465.72;;;15.77;100.00
11448;BME280;43755;49.736;8.734;2022-09-09T06:16:08;97460.81;;;15.84;100.00
11448;BME280;43755;49.736;8.734;2022-09-09T06:18:09;97469.44;;;15.87;100.00
11448;BME280;43755;49.736;8.734;2022-09-09T06:20:11;97466.72;;;16.00;100.00
11448;BME280;43755;49.736;8.734;2022-09-09T06:22:15;97470.81;;;16.17;100.00
11448;BME280;43755;49.736;8.734;2022-09-09T06:24:16;97464.06;;;16.24;100.00
11448;BME280;43755;49.736;8.734;2022-09-09T06:26:20;97458.84;;;16.22;100.00
11448;BME280;43755;49.736;8.734;2022-09-09T06:28:22;97455.81;;;16.27;100.00
11448;BME280;43755;49.736;8.734;2022-09-09T06:30:25;97468.66;;;16.22;100.00
11448;BME280;43755;49.736;8.734;2022-09-09T06:32:26;97468.66;;;16.22;100.00
11448;BME280;43755;49.736;8.734;2022-09-09T06:34:28;97473.03;;;16.23;100.00
11448;BME280;43755;49.736;8.734;2022-09-09T06:36:30;97468.97;;;16.30;100.00
11448;BME280;43755;49.736;8.734;2022-09-09T06:38:33;97469.97;;;16.16;100.00
11448;BME280;43755;49.736;8.734;2022-09-09T06:40:35;97471.78;;;16.16;100.00
11448;BME280;43755;49.736;8.734;2022-09-09T06:42:37;97479.13;;;16.25;100.00
11448;BME280;43755;49.736;8.734;2022-09-09T06:44:38;97478.31;;;16.35;100.00
11448;BME280;43755;49.736;8.734;2022-09-09T06:46:39;97481.91;;;16.47;100.00
11448;BME280;43755;49.736;8.734;2022-09-09T06:48:42;97473.88;;;16.47;100.00
11448;BME280;43755;49.736;8.734;2022-09-09T06:50:44;97470.84;;;16.64;100.00
11448;BME280;43755;49.736;8.734;2022-09-09T06:52:46;97474.03;;;16.57;100.00
11448;BME280;43755;49.736;8.734;2022-09-09T06:54:49;97475.56;;;16.61;100.00
11448;BME280;43755;49.736;8.734;2022-09-09T06:56:50;97480.34;;;16.56;100.00
11448;BME280;43755;49.736;8.734;2022-09-09T06:58:52;97478.69;;;16.78;100.00
11448;BME280;43755;49.736;8.734;2022-09-09T07:01:02;97486.47;;;16.93;100.00
11448;BME280;43755;49.736;8.734;2022-09-09T07:03:03;97479.50;;;16.79;100.00
11448;BME280;43755;49.736;8.734;2022-09-09T07:05:06;97486.16;;;16.73;100.00
11448;BME280;43755;49.736;8.734;2022-09-09T07:07:08;97488.06;;;16.60;100.00
11448;BME280;43755;49.736;8.734;2022-09-09T07:09:13;97473.91;;;16.71;100.00
11448;BME280;43755;49.736;8.734;2022-09-09T07:11:18;97484.00;;;16.78;100.00
11448;BME280;43755;49.736;8.734;2022-09-09T07:13:23;97477.47;;;16.83;100.00
11448;BME280;43755;49.736;8.734;2022-09-09T07:15:25;97480.91;;;16.96;100.00
11448;BME280;43755;49.736;8.734;2022-09-09T07:17:27;97481.06;;;17.16;100.00
11448;BME280;43755;49.736;8.734;2022-09-09T07:19:28;97480.97;;;17.29;100.00
11448;BME280;43755;49.736;8.734;2022-09-09T07:21:31;97476.69;;;17.38;100.00
11448;BME280;43755;49.736;8.734;2022-09-09T07:23:32;97478.38;;;17.16;100.00
11448;BME280;43755;49.736;8.734;2022-09-09T07:25:35;97477.78;;;17.13;100.00
11448;BME280;43755;49.736;8.734;2022-09-09T07:27:38;97482.38;;;17.00;100.00
11448;BME280;43755;49.736;8.734;2022-09-09T07:29:40;97479.69;;;17.00;100.00
11448;BME280;43755;49.736;8.734;2022-09-09T07:31:42;97474.94;;;16.92;100.00
11448;BME280;43755;49.736;8.734;2022-09-09T07:33:44;97473.22;;;16.91;100.00
11448;BME280;43755;49.736;8.734;2022-09-09T07:35:46;97474.69;;;16.84;100.00
11448;BME280;43755;49.736;8.734;2022-09-09T07:37:47;97472.59;;;16.76;100.00
11448;BME280;43755;49.736;8.734;2022-09-09T07:39:48;97479.00;;;16.74;100.00
11448;BME280;43755;49.736;8.734;2022-09-09T07:41:51;97491.75;;;16.70;100.00
11448;BME280;43755;49.736;8.734;2022-09-09T07:43:56;97493.91;;;16.65;100.00
11448;BME280;43755;49.736;8.734;2022-09-09T07:45:59;97501.31;;;16.73;100.00
11448;BME280;43755;49.736;8.734;2022-09-09T07:48:01;97498.34;;;16.77;100.00
11448;BME280;43755;49.736;8.734;2022-09-09T07:50:03;97493.31;;;16.73;100.00
11448;BME280;43755;49.736;8.734;2022-09-09T07:52:04;97494.53;;;16.69;100.00
11448;BME280;43755;49.736;8.734;2022-09-09T07:54:08;97482.09;;;16.92;100.00
11448;BME280;43755;49.736;8.734;2022-09-09T07:56:11;97489.50;;;16.88;100.00
11448;BME280;43755;49.736;8.734;2022-09-09T07:58:13;97481.63;;;16.98;100.00
11448;BME280;43755;49.736;8.734;2022-09-09T08:00:16;97498.94;;;17.27;100.00
11448;BME280;43755;49.736;8.734;2022-09-09T08:02:18;97508.44;;;17.31;100.00
11448;BME280;43755;49.736;8.734;2022-09-09T08:04:21;97504.78;;;17.32;100.00
11448;BME280;43755;49.736;8.734;2022-09-09T08:06:22;97511.81;;;17.33;100.00
11448;BME280;43755;49.736;8.734;2022-09-09T08:08:25;97512.56;;;17.24;100.00
11448;BME280;43755;49.736;8.734;2022-09-09T08:10:26;97506.38;;;17.35;100.00
11448;BME280;43755;49.736;8.734;2022-09-09T08:12:28;97509.28;;;17.32;100.00
11448;BME280;43755;49.736;8.734;2022-09-09T08:14:29;97518.13;;;17.32;100.00
11448;BME280;43755;49.736;8.734;2022-09-09T08:16:33;97518.97;;;17.22;100.00
11448;BME280;43755;49.736;8.734;2022-09-09T08:18:37;97522.38;;;17.24;100.00
11448;BME280;43755;49.736;8.734;2022-09-09T08:20:39;97515.72;;;17.40;100.00
11448;BME280;43755;49.736;8.734;2022-09-09T08:22:40;97518.03;;;17.45;100.00
11448;BME280;43755;49.736;8.734;2022-09-09T08:24:42;97524.50;;;17.53;100.00
11448;BME280;43755;49.736;8.734;2022-09-09T08:26:44;97527.47;;;17.73;100.00
11448;BME280;43755;49.736;8.734;2022-09-09T08:28:47;97518.97;;;17.79;100.00
11448;BME280;43755;49.736;8.734;2022-09-09T08:30:51;97519.56;;;17.93;100.00
11448;BME280;43755;49.736;8.734;2022-09-09T08:32:54;97534.16;;;18.00;100.00
11448;BME280;43755;49.736;8.734;2022-09-09T08:34:56;97524.53;;;17.87;100.00
11448;BME280;43755;49.736;8.734;2022-09-09T08:36:57;97528.81;;;17.89;100.00
11448;BME280;43755;49.736;8.734;2022-09-09T08:38:59;97522.13;;;17.84;100.00
11448;BME280;43755;49.736;8.734;2022-09-09T08:43:26;97526.84;;;18.02;100.00
11448;BME280;43755;49.736;8.734;2022-09-09T08:45:33;97526.47;;;18.18;100.00
11448;BME280;43755;49.736;8.734;2022-09-09T08:47:42;97519.41;;;18.17;100.00
11448;BME280;43755;49.736;8.734;2022-09-09T08:50:02;97531.34;;;18.24;100.00
11448;BME280;43755;49.736;8.734;2022-09-09T08:52:12;97532.03;;;18.37;100.00
11448;BME280;43755;49.736;8.734;2022-09-09T08:54:16;97532.41;;;18.22;100.00
11448;BME280;43755;49.736;8.734;2022-09-09T08:56:21;97528.66;;;18.24;100.00
11448;BME280;43755;49.736;8.734;2022-09-09T08:58:26;97523.13;;;18.48;100.00
11448;BME280;43755;49.736;8.734;2022-09-09T09:00:34;97525.34;;;18.43;100.00
11448;BME280;43755;49.736;8.734;2022-09-09T09:02:44;97533.13;;;18.35;100.00
11448;BME280;43755;49.736;8.734;2022-09-09T09:04:58;97531.88;;;18.50;100.00
11448;BME280;43755;49.736;8.734;2022-09-09T09:07:09;97537.81;;;18.76;100.00
11448;BME280;43755;49.736;8.734;2022-09-09T09:09:20;97538.44;;;18.68;100.00
11448;BME280;43755;49.736;8.734;2022-09-09T09:11:22;97537.59;;;18.57;100.00
11448;BME280;43755;49.736;8.734;2022-09-09T09:13:30;97542.97;;;18.57;100.00
11448;BME280;43755;49.736;8.734;2022-09-09T09:15:37;97528.84;;;18.66;100.00
11448;BME280;43755;49.736;8.734;2022-09-09T09:17:40;97533.56;;;18.51;100.00
11448;BME280;43755;49.736;8.734;2022-09-09T09:19:43;97534.53;;;18.50;100.00
11448;BME280;43755;49.736;8.734;2022-09-09T09:21:53;97535.91;;;18.67;100.00
11448;BME280;43755;49.736;8.734;2022-09-09T09:23:57;97544.06;;;18.65;100.00
11448;BME280;43755;49.736;8.734;2022-09-09T09:26:00;97536.53;;;18.59;100.00
11448;BME280;43755;49.736;8.734;2022-09-09T09:28:07;97536.13;;;18.53;100.00
11448;BME280;43755;49.736;8.734;2022-09-09T09:30:16;97537.59;;;18.57;100.00
11448;BME280;43755;49.736;8.734;2022-09-09T09:32:19;97534.38;;;18.74;100.00
11448;BME280;43755;49.736;8.734;2022-09-09T09:34:23;97530.69;;;18.86;100.00
11448;BME280;43755;49.736;8.734;2022-09-09T09:36:33;97529.78;;;18.97;100.00
11448;BME280;43755;49.736;8.734;2022-09-09T09:38:36;97531.06;;;19.13;100.00
11448;BME280;43755;49.736;8.734;2022-09-09T09:40:48;97543.06;;;18.98;100.00
11448;BME280;43755;49.736;8.734;2022-09-09T09:42:54;97543.03;;;18.77;100.00
11448;BME280;43755;49.736;8.734;2022-09-09T09:44:55;97538.59;;;18.56;100.00
11448;BME280;43755;49.736;8.734;2022-09-09T09:47:08;97540.66;;;18.41;100.00
11448;BME280;43755;49.736;8.734;2022-09-09T09:49:10;97527.16;;;18.42;100.00
11448;BME280;43755;49.736;8.734;2022-09-09T09:51:17;97530.00;;;18.30;100.00
11448;BME280;43755;49.736;8.734;2022-09-09T09:53:22;97529.63;;;18.23;100.00
11448;BME280;43755;49.736;8.734;2022-09-09T09:55:28;97531.44;;;18.34;100.00
11448;BME280;43755;49.736;8.734;2022-09-09T09:57:31;97530.94;;;18.40;100.00
11448;BME280;43755;49.736;8.734;2022-09-09T09:59:35;97520.34;;;18.38;100.00
11448;BME280;43755;49.736;8.734;2022-09-09T10:01:37;97516.53;;;18.52;100.00
11448;BME280;43755;49.736;8.734;2022-09-09T10:03:38;97514.22;;;18.59;100.00
11448;BME280;43755;49.736;8.734;2022-09-09T10:05:45;97517.34;;;18.75;100.00
11448;BME280;43755;49.736;8.734;2022-09-09T10:07:47;97512.94;;;18.74;100.00
11448;BME280;43755;49.736;8.734;2022-09-09T10:10:01;97512.75;;;18.66;100.00
11448;BME280;43755;49.736;8.734;2022-09-09T10:12:11;97515.59;;;18.42;100.00
11448;BME280;43755;49.736;8.734;2022-09-09T10:14:20;97523.41;;;18.23;100.00
11448;BME280;43755;49.736;8.734;2022-09-09T10:16:32;97524.66;;;18.19;100.00
11448;BME280;43755;49.736;8.734;2022-09-09T10:18:44;97520.63;;;18.24;100.00
11448;BME280;43755;49.736;8.734;2022-09-09T10:20:54;97518.00;;;18.45;100.00
11448;BME280;43755;49.736;8.734;2022-09-09T10:23:09;97522.31;;;18.79;100.00
11448;BME280;43755;49.736;8.734;2022-09-09T10:25:43;97523.63;;;19.38;100.00
11448;BME280;43755;49.736;8.734;2022-09-09T10:28:07;97522.16;;;19.75;99.41
11448;BME280;43755;49.736;8.734;2022-09-09T10:30:15;97530.25;;;19.85;90.80
11448;BME280;43755;49.736;8.734;2022-09-09T10:32:33;97525.44;;;19.58;91.22
11448;BME280;43755;49.736;8.734;2022-09-09T10:34:55;97515.28;;;19.92;88.71
11448;BME280;43755;49.736;8.734;2022-09-09T10:36:57;97504.69;;;20.30;90.17
11448;BME280;43755;49.736;8.734;2022-09-09T10:39:03;97515.81;;;20.16;86.04
11448;BME280;43755;49.736;8.734;2022-09-09T10:41:16;97507.22;;;19.82;86.64
11448;BME280;43755;49.736;8.734;2022-09-09T10:43:30;97501.25;;;19.48;89.73
11448;BME280;43755;49.736;8.734;2022-09-09T10:45:41;97504.84;;;19.58;87.03
11448;BME280;43755;49.736;8.734;2022-09-09T10:48:16;97504.06;;;20.08;93.26
11448;BME280;43755;49.736;8.734;2022-09-09T10:50:32;97502.38;;;20.07;85.06
11448;BME280;43755;49.736;8.734;2022-09-09T10:52:44;97494.63;;;20.13;80.68
11448;BME280;43755;49.736;8.734;2022-09-09T10:54:56;97483.63;;;20.26;81.80
11448;BME280;43755;49.736;8.734;2022-09-09T10:57:05;97492.13;;;20.31;82.38
11448;BME280;43755;49.736;8.734;2022-09-09T10:59:17;97490.75;;;20.46;81.01